Terminal Aerodrome Forecast
Issued by NWS Shreveport, LA

Home | Current Version | Previous Version | Text Only | Print | Product List | Glossary On
Versions: 1 2 3 4 5 6 7 8 9 10 11 12 13 14 15 16 17 18 19 20 21
000
FTUS44 KSHV 200500
TAFLFK
TAF
KLFK 200540Z 2006/2106 17005KT P6SM SKC
     FM201000 VRB02KT 5SM BR BKN015
      TEMPO 2011/2014 2SM BR OVC006
     FM201500 18008KT P6SM SCT050 SCT250=

USA.gov is the U.S. government's official web portal to all federal, state and local government web resources and services.